createdAt,value
2023-05-25T00:01:01.708Z,46.51
2023-05-25T00:03:34.127Z,46.59
2023-05-25T00:09:19.612Z,46.43
2023-05-25T00:12:03.085Z,46.58
2023-05-25T00:14:32.180Z,46.63
2023-05-25T00:21:33.245Z,46.75
2023-05-25T00:24:07.894Z,46.79
2023-05-25T00:26:42.276Z,47.04
2023-05-25T00:29:11.272Z,46.76
2023-05-25T00:31:39.791Z,46.84
2023-05-25T00:34:11.228Z,46.80
2023-05-25T00:36:43.599Z,46.82
2023-05-25T00:39:14.336Z,47.20
2023-05-25T00:41:50.884Z,47.05
2023-05-25T00:44:44.244Z,47.10
2023-05-25T00:47:18.783Z,47.16
2023-05-25T00:49:50.285Z,47.01
2023-05-25T00:52:20.486Z,47.02
2023-05-25T00:54:55.803Z,46.86
2023-05-25T00:57:29.877Z,47.03
2023-05-25T01:00:12.713Z,47.05
2023-05-25T01:02:44.966Z,47.27
2023-05-25T01:05:15.509Z,47.18
2023-05-25T01:07:49.278Z,47.12
2023-05-25T01:10:19.151Z,47.42
2023-05-25T01:12:48.237Z,47.18
2023-05-25T01:15:17.746Z,47.13
2023-05-25T01:17:50.577Z,47.39
2023-05-25T01:20:21.708Z,47.70
2023-05-25T01:23:06.490Z,47.53
2023-05-25T01:25:42.640Z,47.62
2023-05-25T01:28:42.102Z,47.66
2023-05-25T01:31:13.659Z,47.56
2023-05-25T01:33:56.383Z,47.88
2023-05-25T01:36:28.236Z,47.70
2023-05-25T01:39:02.354Z,47.61
2023-05-25T01:41:32.968Z,47.81
2023-05-25T01:44:06.854Z,47.94
2023-05-25T01:46:41.202Z,47.92
2023-05-25T01:49:24.364Z,48.12
2023-05-25T01:52:24.250Z,48.04
2023-05-25T01:55:01.342Z,48.10
2023-05-25T01:57:31.796Z,48.10
2023-05-25T02:00:07.446Z,48.10
2023-05-25T02:02:43.396Z,48.23
2023-05-25T02:05:25.404Z,48.19
2023-05-25T02:07:55.424Z,48.12
2023-05-25T02:10:27.069Z,48.25
2023-05-25T02:12:56.159Z,48.18
2023-05-25T02:15:25.060Z,48.34
2023-05-25T02:17:58.117Z,48.23
2023-05-25T02:20:26.852Z,48.25
2023-05-25T02:22:55.585Z,48.34
2023-05-25T02:25:27.683Z,48.40
2023-05-25T02:27:58.416Z,48.09
2023-05-25T02:30:29.544Z,48.43
2023-05-25T02:36:48.266Z,48.60
2023-05-25T02:39:17.343Z,48.56
2023-05-25T02:41:51.046Z,48.64
2023-05-25T02:44:22.090Z,48.64
2023-05-25T02:46:56.299Z,48.52
2023-05-25T02:49:25.487Z,48.91
2023-05-25T02:52:01.466Z,48.70
2023-05-25T02:54:34.953Z,48.38
2023-05-25T02:57:09.476Z,48.42
2023-05-25T02:59:39.933Z,48.46
2023-05-25T03:02:15.037Z,48.72
2023-05-25T03:04:50.095Z,48.67
2023-05-25T03:07:21.808Z,48.80
2023-05-25T03:09:51.320Z,48.73
2023-05-25T03:12:27.164Z,48.89
2023-05-25T03:15:24.753Z,48.81
2023-05-25T03:18:25.913Z,48.89
2023-05-25T03:20:57.466Z,48.60
2023-05-25T03:23:35.451Z,48.78
2023-05-25T03:26:08.135Z,48.95
2023-05-25T03:28:40.398Z,48.97
2023-05-25T03:31:15.360Z,48.89
2023-05-25T03:33:53.234Z,49.23
2023-05-25T03:39:51.221Z,48.66
2023-05-25T03:42:25.132Z,48.87
2023-05-25T03:45:05.630Z,48.99
2023-05-25T03:47:50.807Z,48.98
2023-05-25T03:50:35.323Z,48.92
2023-05-25T03:53:05.452Z,48.90
2023-05-25T03:55:37.257Z,48.91
2023-05-25T04:01:46.375Z,48.74
2023-05-25T04:11:26.181Z,49.09
2023-05-25T04:14:01.079Z,49.14
2023-05-25T04:16:58.653Z,49.44
2023-05-25T04:19:40.055Z,49.37
2023-05-25T04:22:48.426Z,49.11
2023-05-25T04:25:47.692Z,49.66
2023-05-25T04:28:41.617Z,49.21
2023-05-25T04:31:13.081Z,49.28
2023-05-25T04:34:16.283Z,49.47
2023-05-25T04:36:49.785Z,49.30
2023-05-25T04:39:28.392Z,49.37
2023-05-25T04:41:57.691Z,49.37
2023-05-25T04:44:32.308Z,49.59
2023-05-25T04:47:09.699Z,49.64
2023-05-25T04:49:44.099Z,49.59
2023-05-25T04:52:35.009Z,49.30
2023-05-25T04:55:19.987Z,49.43
2023-05-25T04:57:58.380Z,49.52
2023-05-25T05:00:39.289Z,49.09
2023-05-25T05:03:14.833Z,49.58
2023-05-25T05:06:24.784Z,49.47
2023-05-25T05:08:55.622Z,49.45
2023-05-25T05:11:24.488Z,49.63
2023-05-25T05:13:57.298Z,49.00
2023-05-25T05:16:42.218Z,49.40
2023-05-25T05:23:18.227Z,49.30
2023-05-25T05:25:48.462Z,49.55
2023-05-25T05:28:37.146Z,49.72
2023-05-25T05:31:14.235Z,49.38
2023-05-25T05:33:48.547Z,49.35
2023-05-25T07:04:43.774Z,49.02
2023-05-25T07:07:28.456Z,48.86
2023-05-25T07:10:08.487Z,49.26
2023-05-25T07:12:43.402Z,48.96
2023-05-25T07:15:13.670Z,48.92
2023-05-25T07:17:47.408Z,49.08
2023-05-25T10:16:17.873Z,43.68
2023-05-25T10:18:55.210Z,43.74
2023-05-25T10:33:14.538Z,43.01
